sensor_id;sensor_type;location;lat;lon;timestamp;pressure;altitude;pressure_sealevel;temperature;humidity
52319;BME280;38258;51.148;14.068;2023-12-20T00:00:20;97860.84;;;3.98;100.00
52319;BME280;38258;51.148;14.068;2023-12-20T00:02:47;97852.38;;;3.83;100.00
52319;BME280;38258;51.148;14.068;2023-12-20T00:05:14;97851.50;;;3.82;100.00
52319;BME280;38258;51.148;14.068;2023-12-20T00:07:41;97852.19;;;4.02;100.00
52319;BME280;38258;51.148;14.068;2023-12-20T00:10:08;97858.28;;;3.96;100.00
52319;BME280;38258;51.148;14.068;2023-12-20T00:12:35;97856.53;;;4.00;100.00
52319;BME280;38258;51.148;14.068;2023-12-20T00:15:02;97854.06;;;3.89;100.00
52319;BME280;38258;51.148;14.068;2023-12-20T00:17:28;97833.47;;;3.75;100.00
52319;BME280;38258;51.148;14.068;2023-12-20T00:19:55;97825.66;;;3.81;100.00
52319;BME280;38258;51.148;14.068;2023-12-20T00:22:21;97838.56;;;3.84;100.00
52319;BME280;38258;51.148;14.068;2023-12-20T00:24:49;97835.03;;;3.91;100.00
52319;BME280;38258;51.148;14.068;2023-12-20T00:27:15;97828.34;;;3.72;100.00
52319;BME280;38258;51.148;14.068;2023-12-20T00:29:42;97823.13;;;3.75;100.00
52319;BME280;38258;51.148;14.068;2023-12-20T00:32:13;97823.16;;;3.72;100.00
52319;BME280;38258;51.148;14.068;2023-12-20T00:34:39;97828.41;;;3.62;100.00
52319;BME280;38258;51.148;14.068;2023-12-20T00:37:06;97819.78;;;3.66;100.00
52319;BME280;38258;51.148;14.068;2023-12-20T00:39:32;97821.56;;;3.60;100.00
52319;BME280;38258;51.148;14.068;2023-12-20T00:42:00;97827.53;;;3.63;100.00
52319;BME280;38258;51.148;14.068;2023-12-20T00:44:26;97833.56;;;3.68;100.00
52319;BME280;38258;51.148;14.068;2023-12-20T00:46:53;97816.47;;;3.52;100.00
52319;BME280;38258;51.148;14.068;2023-12-20T00:49:19;97836.25;;;3.54;100.00
52319;BME280;38258;51.148;14.068;2023-12-20T00:51:45;97818.16;;;3.56;100.00
52319;BME280;38258;51.148;14.068;2023-12-20T00:54:13;97837.03;;;3.63;100.00
52319;BME280;38258;51.148;14.068;2023-12-20T00:56:40;97824.16;;;3.60;100.00
52319;BME280;38258;51.148;14.068;2023-12-20T00:59:07;97824.16;;;3.57;100.00
52319;BME280;38258;51.148;14.068;2023-12-20T01:01:34;97807.88;;;3.47;100.00
52319;BME280;38258;51.148;14.068;2023-12-20T01:04:00;97808.03;;;3.28;100.00
52319;BME280;38258;51.148;14.068;2023-12-20T01:06:27;97816.59;;;3.35;100.00
52319;BME280;38258;51.148;14.068;2023-12-20T01:08:53;97809.69;;;3.37;100.00
52319;BME280;38258;51.148;14.068;2023-12-20T01:11:20;97808.00;;;3.31;100.00
52319;BME280;38258;51.148;14.068;2023-12-20T01:13:46;97801.94;;;3.38;100.00
52319;BME280;38258;51.148;14.068;2023-12-20T01:16:14;97805.47;;;3.28;100.00
52319;BME280;38258;51.148;14.068;2023-12-20T01:18:40;97797.69;;;3.27;100.00
52319;BME280;38258;51.148;14.068;2023-12-20T01:21:07;97791.63;;;3.34;100.00
52319;BME280;38258;51.148;14.068;2023-12-20T01:23:33;97792.50;;;3.31;100.00
52319;BME280;38258;51.148;14.068;2023-12-20T01:26:00;97787.38;;;3.28;100.00
52319;BME280;38258;51.148;14.068;2023-12-20T01:28:27;97787.41;;;3.25;100.00
52319;BME280;38258;51.148;14.068;2023-12-20T01:30:54;97789.00;;;3.35;100.00
52319;BME280;38258;51.148;14.068;2023-12-20T01:33:22;97786.50;;;3.29;100.00
52319;BME280;38258;51.148;14.068;2023-12-20T01:35:48;97783.09;;;3.22;100.00
52319;BME280;38258;51.148;14.068;2023-12-20T01:38:15;97784.03;;;3.14;100.00
52319;BME280;38258;51.148;14.068;2023-12-20T01:40:43;97778.00;;;3.13;100.00
52319;BME280;38258;51.148;14.068;2023-12-20T01:43:10;97773.72;;;3.07;100.00
52319;BME280;38258;51.148;14.068;2023-12-20T01:45:37;97778.03;;;3.11;100.00
52319;BME280;38258;51.148;14.068;2023-12-20T01:48:05;97779.84;;;3.02;100.00
52319;BME280;38258;51.148;14.068;2023-12-20T01:50:35;97773.66;;;3.18;100.00
52319;BME280;38258;51.148;14.068;2023-12-20T01:53:02;97763.44;;;3.04;100.00
52319;BME280;38258;51.148;14.068;2023-12-20T01:55:32;97762.59;;;3.02;100.00
52319;BME280;38258;51.148;14.068;2023-12-20T01:57:59;97749.72;;;2.97;100.00
52319;BME280;38258;51.148;14.068;2023-12-20T02:00:26;97765.91;;;3.17;100.00
52319;BME280;38258;51.148;14.068;2023-12-20T02:02:54;97753.00;;;3.15;100.00
52319;BME280;38258;51.148;14.068;2023-12-20T02:05:21;97752.31;;;2.94;100.00
52319;BME280;38258;51.148;14.068;2023-12-20T02:07:49;97749.72;;;2.97;100.00
52319;BME280;38258;51.148;14.068;2023-12-20T02:10:15;97751.50;;;2.89;100.00
52319;BME280;38258;51.148;14.068;2023-12-20T02:12:42;97757.47;;;2.99;100.00
52319;BME280;38258;51.148;14.068;2023-12-20T02:15:09;97756.63;;;2.94;100.00
52319;BME280;38258;51.148;14.068;2023-12-20T02:17:36;97760.06;;;2.96;100.00
52319;BME280;38258;51.148;14.068;2023-12-20T02:20:03;97748.97;;;2.85;100.00
52319;BME280;38258;51.148;14.068;2023-12-20T02:22:35;97709.44;;;2.72;100.00
52319;BME280;38258;51.148;14.068;2023-12-20T02:25:02;97707.81;;;2.60;100.00
52319;BME280;38258;51.148;14.068;2023-12-20T02:27:29;97721.50;;;2.73;100.00
52319;BME280;38258;51.148;14.068;2023-12-20T02:29:56;97725.69;;;2.89;100.00
52319;BME280;38258;51.148;14.068;2023-12-20T02:32:24;97744.59;;;2.90;100.00
52319;BME280;38258;51.148;14.068;2023-12-20T02:34:51;97709.44;;;2.73;100.00
52319;BME280;38258;51.148;14.068;2023-12-20T02:37:18;97719.78;;;2.70;100.00
52319;BME280;38258;51.148;14.068;2023-12-20T02:39:46;97717.88;;;2.97;100.00
52319;BME280;38258;51.148;14.068;2023-12-20T02:42:13;97728.22;;;2.92;100.00
52319;BME280;38258;51.148;14.068;2023-12-20T02:44:39;97706.78;;;2.79;100.00
52319;BME280;38258;51.148;14.068;2023-12-20T02:47:06;97719.69;;;2.81;100.00
52319;BME280;38258;51.148;14.068;2023-12-20T02:49:32;97723.09;;;2.88;100.00
52319;BME280;38258;51.148;14.068;2023-12-20T02:51:59;97731.72;;;2.88;100.00
52319;BME280;38258;51.148;14.068;2023-12-20T02:54:26;97708.50;;;2.83;100.00
52319;BME280;38258;51.148;14.068;2023-12-20T02:56:54;97726.53;;;2.90;100.00
52319;BME280;38258;51.148;14.068;2023-12-20T02:59:20;97729.09;;;2.91;100.00
52319;BME280;38258;51.148;14.068;2023-12-20T03:01:47;97716.97;;;3.01;100.00
52319;BME280;38258;51.148;14.068;2023-12-20T03:04:13;97723.03;;;2.97;100.00
52319;BME280;38258;51.148;14.068;2023-12-20T03:06:40;97687.09;;;2.69;100.00
52319;BME280;38258;51.148;14.068;2023-12-20T03:09:06;97712.84;;;2.75;100.00
52319;BME280;38258;51.148;14.068;2023-12-20T03:11:33;97727.34;;;2.95;100.00
52319;BME280;38258;51.148;14.068;2023-12-20T03:14:01;97728.25;;;2.89;100.00
52319;BME280;38258;51.148;14.068;2023-12-20T03:16:27;97718.00;;;2.80;100.00
52319;BME280;38258;51.148;14.068;2023-12-20T03:18:54;97721.44;;;2.77;100.00
52319;BME280;38258;51.148;14.068;2023-12-20T03:21:21;97724.88;;;2.81;100.00
52319;BME280;38258;51.148;14.068;2023-12-20T03:23:47;97681.13;;;2.61;100.00
52319;BME280;38258;51.148;14.068;2023-12-20T03:26:14;97722.31;;;2.76;100.00
52319;BME280;38258;51.148;14.068;2023-12-20T03:28:40;97717.94;;;2.89;100.00
52319;BME280;38258;51.148;14.068;2023-12-20T03:31:09;97717.13;;;2.81;100.00
52319;BME280;38258;51.148;14.068;2023-12-20T03:33:35;97678.53;;;2.61;100.00
52319;BME280;38258;51.148;14.068;2023-12-20T03:36:02;97715.34;;;2.88;100.00
52319;BME280;38258;51.148;14.068;2023-12-20T03:38:29;97699.09;;;2.75;100.00
52319;BME280;38258;51.148;14.068;2023-12-20T03:40:55;97701.63;;;2.79;100.00
52319;BME280;38258;51.148;14.068;2023-12-20T03:43:22;97700.72;;;2.85;100.00
52319;BME280;38258;51.148;14.068;2023-12-20T03:45:48;97669.09;;;2.60;100.00
52319;BME280;38258;51.148;14.068;2023-12-20T03:48:16;97702.56;;;2.72;100.00
52319;BME280;38258;51.148;14.068;2023-12-20T03:50:43;97671.59;;;2.67;100.00
52319;BME280;38258;51.148;14.068;2023-12-20T03:53:09;97667.34;;;2.63;100.00
52319;BME280;38258;51.148;14.068;2023-12-20T03:55:36;97675.09;;;2.62;100.00
52319;BME280;38258;51.148;14.068;2023-12-20T03:58:03;97665.59;;;2.67;100.00
52319;BME280;38258;51.148;14.068;2023-12-20T04:00:29;97697.31;;;2.83;100.00
52319;BME280;38258;51.148;14.068;2023-12-20T04:02:56;97709.28;;;2.93;100.00
52319;BME280;38258;51.148;14.068;2023-12-20T04:05:23;97673.41;;;2.59;100.00
52319;BME280;38258;51.148;14.068;2023-12-20T04:07:50;97687.00;;;2.81;100.00
52319;BME280;38258;51.148;14.068;2023-12-20T04:10:17;97697.38;;;2.75;100.00
52319;BME280;38258;51.148;14.068;2023-12-20T04:12:43;97696.47;;;2.79;100.00
52319;BME280;38258;51.148;14.068;2023-12-20T04:15:10;97707.59;;;2.86;100.00
52319;BME280;38258;51.148;14.068;2023-12-20T04:17:37;97689.59;;;2.78;100.00
52319;BME280;38258;51.148;14.068;2023-12-20T04:20:05;97687.00;;;2.78;100.00
52319;BME280;38258;51.148;14.068;2023-12-20T04:22:33;97704.91;;;2.99;100.00
52319;BME280;38258;51.148;14.068;2023-12-20T04:24:59;97697.34;;;2.78;100.00
52319;BME280;38258;51.148;14.068;2023-12-20T04:27:26;97682.81;;;2.68;100.00
52319;BME280;38258;51.148;14.068;2023-12-20T04:29:52;97687.00;;;2.78;100.00
52319;BME280;38258;51.148;14.068;2023-12-20T04:32:19;97720.50;;;2.89;100.00
52319;BME280;38258;51.148;14.068;2023-12-20T04:34:45;97695.59;;;2.82;100.00
52319;BME280;38258;51.148;14.068;2023-12-20T04:37:12;97713.56;;;2.93;100.00
52319;BME280;38258;51.148;14.068;2023-12-20T04:39:40;97718.69;;;2.99;100.00
52319;BME280;38258;51.148;14.068;2023-12-20T04:42:07;97708.34;;;3.04;100.00
52319;BME280;38258;51.148;14.068;2023-12-20T04:44:33;97712.69;;;2.95;100.00
52319;BME280;38258;51.148;14.068;2023-12-20T04:47:00;97674.19;;;2.69;100.00
52319;BME280;38258;51.148;14.068;2023-12-20T04:49:27;97683.63;;;2.75;100.00
52319;BME280;38258;51.148;14.068;2023-12-20T04:51:53;97716.09;;;3.01;100.00
52319;BME280;38258;51.148;14.068;2023-12-20T04:54:21;97712.72;;;2.92;100.00
52319;BME280;38258;51.148;14.068;2023-12-20T04:56:49;97693.00;;;2.83;100.00
52319;BME280;38258;51.148;14.068;2023-12-20T04:59:16;97697.31;;;2.83;100.00
52319;BME280;38258;51.148;14.068;2023-12-20T05:01:42;97695.59;;;2.82;100.00
52319;BME280;38258;51.148;14.068;2023-12-20T05:04:09;97697.25;;;2.89;100.00
52319;BME280;38258;51.148;14.068;2023-12-20T05:06:35;97688.59;;;2.92;100.00
52319;BME280;38258;51.148;14.068;2023-12-20T05:09:02;97712.66;;;3.00;100.00
52319;BME280;38258;51.148;14.068;2023-12-20T05:11:29;97707.53;;;2.95;100.00
52319;BME280;38258;51.148;14.068;2023-12-20T05:13:57;97699.91;;;2.78;100.00
52319;BME280;38258;51.148;14.068;2023-12-20T05:16:23;97711.81;;;2.96;100.00
52319;BME280;38258;51.148;14.068;2023-12-20T05:18:50;97728.22;;;2.91;100.00
52319;BME280;38258;51.148;14.068;2023-12-20T05:21:17;97722.91;;;3.11;100.00
52319;BME280;38258;51.148;14.068;2023-12-20T05:23:45;97703.25;;;2.93;100.00
52319;BME280;38258;51.148;14.068;2023-12-20T05:26:12;97680.97;;;2.82;100.00
52319;BME280;38258;51.148;14.068;2023-12-20T05:28:38;97692.06;;;2.91;100.00
52319;BME280;38258;51.148;14.068;2023-12-20T05:31:06;97725.50;;;3.08;100.00
52319;BME280;38258;51.148;14.068;2023-12-20T05:33:33;97713.53;;;2.97;100.00
52319;BME280;38258;51.148;14.068;2023-12-20T05:36:00;97715.22;;;3.03;100.00
52319;BME280;38258;51.148;14.068;2023-12-20T05:38:26;97718.63;;;3.07;100.00
52319;BME280;38258;51.148;14.068;2023-12-20T05:40:53;97737.56;;;3.09;100.00
52319;BME280;38258;51.148;14.068;2023-12-20T05:43:20;97731.47;;;3.15;100.00
52319;BME280;38258;51.148;14.068;2023-12-20T05:45:46;97727.22;;;3.07;100.00
52319;BME280;38258;51.148;14.068;2023-12-20T05:48:14;97722.97;;;3.03;100.00
52319;BME280;38258;51.148;14.068;2023-12-20T05:50:41;97720.41;;;3.02;100.00
52319;BME280;38258;51.148;14.068;2023-12-20T05:53:07;97726.31;;;3.15;100.00
52319;BME280;38258;51.148;14.068;2023-12-20T05:55:34;97744.38;;;3.19;100.00
52319;BME280;38258;51.148;14.068;2023-12-20T05:58:00;97735.84;;;3.06;100.00
52319;BME280;38258;51.148;14.068;2023-12-20T06:00:27;97747.03;;;3.10;100.00
52319;BME280;38258;51.148;14.068;2023-12-20T06:02:53;97747.03;;;3.11;100.00
52319;BME280;38258;51.148;14.068;2023-12-20T06:05:21;97740.94;;;3.14;100.00
52319;BME280;38258;51.148;14.068;2023-12-20T06:07:47;97745.28;;;3.12;100.00
52319;BME280;38258;51.148;14.068;2023-12-20T06:10:16;97755.53;;;3.21;100.00
52319;BME280;38258;51.148;14.068;2023-12-20T06:12:42;97760.78;;;3.14;100.00
52319;BME280;38258;51.148;14.068;2023-12-20T06:15:09;97753.91;;;3.13;100.00
52319;BME280;38258;51.148;14.068;2023-12-20T06:17:35;97752.13;;;3.19;100.00
52319;BME280;38258;51.148;14.068;2023-12-20T06:20:02;97763.22;;;3.29;100.00
52319;BME280;38258;51.148;14.068;2023-12-20T06:22:34;97755.63;;;3.14;100.00
52319;BME280;38258;51.148;14.068;2023-12-20T06:25:00;97746.16;;;3.11;100.00
52319;BME280;38258;51.148;14.068;2023-12-20T06:27:28;97760.78;;;3.14;100.00
52319;BME280;38258;51.148;14.068;2023-12-20T06:29:55;97770.25;;;3.15;100.00
52319;BME280;38258;51.148;14.068;2023-12-20T06:32:22;97758.19;;;3.14;100.00
52319;BME280;38258;51.148;14.068;2023-12-20T06:34:49;97745.31;;;3.09;100.00
52319;BME280;38258;51.148;14.068;2023-12-20T06:37:16;97748.69;;;3.14;100.00
52319;BME280;38258;51.148;14.068;2023-12-20T06:39:44;97741.84;;;3.10;100.00
52319;BME280;38258;51.148;14.068;2023-12-20T06:42:12;97753.97;;;3.03;100.00
52319;BME280;38258;51.148;14.068;2023-12-20T06:44:39;97751.41;;;2.99;100.00
52319;BME280;38258;51.148;14.068;2023-12-20T06:47:05;97763.41;;;3.09;100.00
52319;BME280;38258;51.148;14.068;2023-12-20T06:49:32;97783.22;;;3.07;100.00
52319;BME280;38258;51.148;14.068;2023-12-20T06:51:59;97785.75;;;3.15;100.00
52319;BME280;38258;51.148;14.068;2023-12-20T06:54:25;97780.66;;;3.07;100.00
52319;BME280;38258;51.148;14.068;2023-12-20T06:56:53;97784.94;;;3.06;100.00
52319;BME280;38258;51.148;14.068;2023-12-20T06:59:20;97793.56;;;3.07;100.00
52319;BME280;38258;51.148;14.068;2023-12-20T07:01:47;97787.41;;;3.23;100.00
52319;BME280;38258;51.148;14.068;2023-12-20T07:04:14;97783.22;;;3.05;100.00
52319;BME280;38258;51.148;14.068;2023-12-20T07:06:41;97773.72;;;3.07;100.00
52319;BME280;38258;51.148;14.068;2023-12-20T07:09:10;97786.59;;;3.17;100.00
52319;BME280;38258;51.148;14.068;2023-12-20T07:11:38;97795.22;;;3.16;100.00
52319;BME280;38258;51.148;14.068;2023-12-20T07:14:06;97796.16;;;3.05;100.00
52319;BME280;38258;51.148;14.068;2023-12-20T07:16:32;97794.47;;;3.01;100.00
52319;BME280;38258;51.148;14.068;2023-12-20T07:19:00;97800.44;;;3.06;100.00
52319;BME280;38258;51.148;14.068;2023-12-20T07:21:26;97794.47;;;3.03;100.00
52319;BME280;38258;51.148;14.068;2023-12-20T07:23:53;97793.56;;;3.05;100.00
52319;BME280;38258;51.148;14.068;2023-12-20T07:26:19;97782.47;;;2.92;100.00
52319;BME280;38258;51.148;14.068;2023-12-20T07:28:46;97793.59;;;3.02;100.00
52319;BME280;38258;51.148;14.068;2023-12-20T07:31:16;97793.59;;;3.01;100.00
52319;BME280;38258;51.148;14.068;2023-12-20T07:33:43;97797.06;;;3.01;100.00
52319;BME280;38258;51.148;14.068;2023-12-20T07:36:09;97804.78;;;3.04;100.00
52319;BME280;38258;51.148;14.068;2023-12-20T07:38:37;97807.47;;;2.90;100.00
52319;BME280;38258;51.148;14.068;2023-12-20T07:41:03;97803.13;;;2.94;100.00
52319;BME280;38258;51.148;14.068;2023-12-20T07:43:30;97799.66;;;2.98;100.00
52319;BME280;38258;51.148;14.068;2023-12-20T07:45:57;97803.19;;;2.83;100.00
52319;BME280;38258;51.148;14.068;2023-12-20T07:48:25;97796.28;;;2.88;100.00
52319;BME280;38258;51.148;14.068;2023-12-20T07:50:51;97803.16;;;2.86;100.00
52319;BME280;38258;51.148;14.068;2023-12-20T07:53:19;97806.63;;;2.88;100.00
52319;BME280;38258;51.148;14.068;2023-12-20T07:55:45;97808.28;;;2.95;100.00
52319;BME280;38258;51.148;14.068;2023-12-20T07:58:12;97812.59;;;2.93;100.00
52319;BME280;38258;51.148;14.068;2023-12-20T08:00:38;97805.72;;;2.92;100.00
52319;BME280;38258;51.148;14.068;2023-12-20T08:03:05;97797.97;;;2.92;100.00
52319;BME280;38258;51.148;14.068;2023-12-20T08:05:33;97801.34;;;3.04;100.00
52319;BME280;38258;51.148;14.068;2023-12-20T08:08:00;97807.38;;;3.00;100.00
52319;BME280;38258;51.148;14.068;2023-12-20T08:10:26;97801.41;;;2.94;100.00
52319;BME280;38258;51.148;14.068;2023-12-20T08:12:55;97795.34;;;3.00;100.00
52319;BME280;38258;51.148;14.068;2023-12-20T08:15:23;97797.03;;;3.06;100.00
52319;BME280;38258;51.148;14.068;2023-12-20T08:17:49;97809.84;;;3.15;100.00
52319;BME280;38258;51.148;14.068;2023-12-20T08:20:16;97792.69;;;3.06;100.00
52319;BME280;38258;51.148;14.068;2023-12-20T08:22:44;97810.69;;;3.19;100.00
52319;BME280;38258;51.148;14.068;2023-12-20T08:25:11;97805.50;;;3.23;100.00
52319;BME280;38258;51.148;14.068;2023-12-20T08:27:39;97804.59;;;3.29;100.00
52319;BME280;38258;51.148;14.068;2023-12-20T08:30:08;97803.78;;;3.22;100.00
52319;BME280;38258;51.148;14.068;2023-12-20T08:32:35;97801.19;;;3.22;100.00
52319;BME280;38258;51.148;14.068;2023-12-20T08:35:02;97821.69;;;3.44;100.00
52319;BME280;38258;51.148;14.068;2023-12-20T08:37:29;97805.31;;;3.42;100.00
52319;BME280;38258;51.148;14.068;2023-12-20T08:39:57;97795.94;;;3.35;100.00
52319;BME280;38258;51.148;14.068;2023-12-20T08:42:24;97813.03;;;3.47;100.00
52319;BME280;38258;51.148;14.068;2023-12-20T08:44:56;97806.19;;;3.43;100.00
52319;BME280;38258;51.148;14.068;2023-12-20T08:47:23;97814.56;;;3.70;100.00
52319;BME280;38258;51.148;14.068;2023-12-20T08:49:50;97812.91;;;3.64;100.00
52319;BME280;38258;51.148;14.068;2023-12-20T08:52:16;97811.94;;;3.71;100.00
52319;BME280;38258;51.148;14.068;2023-12-20T08:54:43;97801.69;;;3.65;100.00
52319;BME280;38258;51.148;14.068;2023-12-20T08:57:11;97801.59;;;4.46;100.00
52319;BME280;38258;51.148;14.068;2023-12-20T08:59:37;97796.91;;;4.75;100.00
52319;BME280;38258;51.148;14.068;2023-12-20T09:02:04;97797.44;;;4.97;100.00
52319;BME280;38258;51.148;14.068;2023-12-20T09:04:31;97799.75;;;5.16;100.00
52319;BME280;38258;51.148;14.068;2023-12-20T09:06:59;97812.34;;;5.37;100.00
52319;BME280;38258;51.148;14.068;2023-12-20T09:09:26;97792.09;;;5.08;100.00
52319;BME280;38258;51.148;14.068;2023-12-20T09:11:52;97800.72;;;5.60;100.00
52319;BME280;38258;51.148;14.068;2023-12-20T09:14:20;97803.34;;;5.05;100.00
52319;BME280;38258;51.148;14.068;2023-12-20T09:16:47;97798.09;;;5.10;100.00
52319;BME280;38258;51.148;14.068;2023-12-20T09:19:16;97799.31;;;4.87;100.00
52319;BME280;38258;51.148;14.068;2023-12-20T09:21:44;97793.28;;;5.40;100.00
52319;BME280;38258;51.148;14.068;2023-12-20T09:24:11;97796.00;;;5.84;100.00
52319;BME280;38258;51.148;14.068;2023-12-20T09:26:37;97799.63;;;6.63;100.00
52319;BME280;38258;51.148;14.068;2023-12-20T09:29:05;97810.91;;;5.73;100.00
52319;BME280;38258;51.148;14.068;2023-12-20T09:31:37;97808.34;;;5.19;100.00
52319;BME280;38258;51.148;14.068;2023-12-20T09:34:04;97811.06;;;5.10;100.00
52319;BME280;38258;51.148;14.068;2023-12-20T09:36:32;97802.41;;;5.13;100.00
52319;BME280;38258;51.148;14.068;2023-12-20T09:39:01;97805.88;;;6.12;100.00
52319;BME280;38258;51.148;14.068;2023-12-20T09:41:28;97805.22;;;5.50;100.00
52319;BME280;38258;51.148;14.068;2023-12-20T09:43:59;97798.13;;;5.62;100.00
52319;BME280;38258;51.148;14.068;2023-12-20T09:46:32;97800.59;;;5.68;100.00
52319;BME280;38258;51.148;14.068;2023-12-20T09:49:01;97791.78;;;6.24;100.00
52319;BME280;38258;51.148;14.068;2023-12-20T09:51:28;97782.44;;;6.15;100.00
52319;BME280;38258;51.148;14.068;2023-12-20T09:53:55;97795.16;;;6.70;100.00
52319;BME280;38258;51.148;14.068;2023-12-20T09:56:24;97772.72;;;5.31;100.00
52319;BME280;38258;51.148;14.068;2023-12-20T09:58:51;97783.44;;;5.11;100.00
52319;BME280;38258;51.148;14.068;2023-12-20T10:01:19;97791.19;;;5.62;100.00
52319;BME280;38258;51.148;14.068;2023-12-20T10:03:47;97787.28;;;5.38;100.00
52319;BME280;38258;51.148;14.068;2023-12-20T10:06:15;97773.50;;;4.79;100.00
52319;BME280;38258;51.148;14.068;2023-12-20T10:08:42;97769.50;;;4.58;100.00
52319;BME280;38258;51.148;14.068;2023-12-20T10:11:08;97773.00;;;4.54;100.00
52319;BME280;38258;51.148;14.068;2023-12-20T10:13:39;97772.19;;;4.52;100.00
52319;BME280;38258;51.148;14.068;2023-12-20T10:16:06;97761.59;;;4.67;100.00
52319;BME280;38258;51.148;14.068;2023-12-20T10:18:32;97765.28;;;4.52;100.00
52319;BME280;38258;51.148;14.068;2023-12-20T10:21:00;97774.63;;;4.63;100.00
52319;BME280;38258;51.148;14.068;2023-12-20T10:23:28;97767.66;;;4.68;100.00
52319;BME280;38258;51.148;14.068;2023-12-20T10:25:58;97772.91;;;4.62;100.00
52319;BME280;38258;51.148;14.068;2023-12-20T10:28:25;97764.19;;;4.67;100.00
52319;BME280;38258;51.148;14.068;2023-12-20T10:30:53;97759.06;;;4.63;100.00
52319;BME280;38258;51.148;14.068;2023-12-20T10:33:24;97749.53;;;4.66;100.00
52319;BME280;38258;51.148;14.068;2023-12-20T10:35:50;97739.38;;;4.52;100.00
52319;BME280;38258;51.148;14.068;2023-12-20T10:38:17;97749.22;;;4.87;100.00
52319;BME280;38258;51.148;14.068;2023-12-20T10:40:45;97742.56;;;4.70;100.00
52319;BME280;38258;51.148;14.068;2023-12-20T10:43:12;97745.56;;;5.00;100.00
52319;BME280;38258;51.148;14.068;2023-12-20T10:45:39;97750.38;;;5.22;100.00
52319;BME280;38258;51.148;14.068;2023-12-20T10:48:09;97745.88;;;4.81;100.00
52319;BME280;38258;51.148;14.068;2023-12-20T10:50:37;97745.03;;;4.78;100.00
52319;BME280;38258;51.148;14.068;2023-12-20T10:53:06;97749.28;;;4.82;100.00
52319;BME280;38258;51.148;14.068;2023-12-20T10:55:33;97732.97;;;4.77;100.00
52319;BME280;38258;51.148;14.068;2023-12-20T10:58:07;97744.16;;;4.79;100.00
52319;BME280;38258;51.148;14.068;2023-12-20T11:00:35;97728.44;;;4.90;100.00
52319;BME280;38258;51.148;14.068;2023-12-20T11:03:05;97728.38;;;4.94;100.00
52319;BME280;38258;51.148;14.068;2023-12-20T11:05:38;97728.84;;;5.65;100.00
52319;BME280;38258;51.148;14.068;2023-12-20T11:08:11;97722.44;;;5.40;100.00
52319;BME280;38258;51.148;14.068;2023-12-20T11:10:42;97743.72;;;5.07;100.00
52319;BME280;38258;51.148;14.068;2023-12-20T11:13:17;97731.97;;;4.84;100.00
52319;BME280;38258;51.148;14.068;2023-12-20T11:15:46;97731.50;;;4.60;100.00
52319;BME280;38258;51.148;14.068;2023-12-20T11:18:14;97727.16;;;4.62;100.00
52319;BME280;38258;51.148;14.068;2023-12-20T11:20:41;97721.78;;;4.73;100.00
52319;BME280;38258;51.148;14.068;2023-12-20T11:23:09;97726.16;;;4.71;100.00
52319;BME280;38258;51.148;14.068;2023-12-20T11:25:54;97717.38;;;4.80;100.00
52319;BME280;38258;51.148;14.068;2023-12-20T11:28:23;97721.59;;;4.86;100.00
52319;BME280;38258;51.148;14.068;2023-12-20T11:30:51;97721.72;;;4.78;100.00
52319;BME280;38258;51.148;14.068;2023-12-20T11:33:21;97718.19;;;4.84;100.00
52319;BME280;38258;51.148;14.068;2023-12-20T11:35:48;97718.44;;;4.68;100.00
52319;BME280;38258;51.148;14.068;2023-12-20T11:38:15;97705.72;;;4.51;100.00
52319;BME280;38258;51.148;14.068;2023-12-20T11:40:42;97704.03;;;4.48;100.00
52319;BME280;38258;51.148;14.068;2023-12-20T11:43:09;97710.13;;;4.46;100.00
52319;BME280;38258;51.148;14.068;2023-12-20T11:45:37;97707.56;;;4.43;100.00
52319;BME280;38258;51.148;14.068;2023-12-20T11:48:04;97710.16;;;4.43;100.00
52319;BME280;38258;51.148;14.068;2023-12-20T11:50:31;97709.19;;;4.50;100.00
52319;BME280;38258;51.148;14.068;2023-12-20T11:52:57;97712.50;;;4.60;100.00
52319;BME280;38258;51.148;14.068;2023-12-20T11:55:24;97706.25;;;4.73;100.00
52319;BME280;38258;51.148;14.068;2023-12-20T11:57:51;97698.25;;;4.87;100.00
52319;BME280;38258;51.148;14.068;2023-12-20T12:00:18;97677.63;;;5.31;100.00
52319;BME280;38258;51.148;14.068;2023-12-20T12:02:57;97684.44;;;5.37;100.00
52319;BME280;38258;51.148;14.068;2023-12-20T12:05:23;97675.38;;;5.11;100.00
52319;BME280;38258;51.148;14.068;2023-12-20T12:07:50;97687.53;;;5.07;100.00
52319;BME280;38258;51.148;14.068;2023-12-20T12:10:16;97689.38;;;5.02;100.00
52319;BME280;38258;51.148;14.068;2023-12-20T12:12:43;97666.19;;;5.42;100.00
52319;BME280;38258;51.148;14.068;2023-12-20T12:15:09;97659.00;;;5.11;100.00
52319;BME280;38258;51.148;14.068;2023-12-20T12:17:36;97653.84;;;5.07;100.00
52319;BME280;38258;51.148;14.068;2023-12-20T12:20:06;97660.28;;;5.33;100.00
52319;BME280;38258;51.148;14.068;2023-12-20T12:22:35;97648.66;;;5.07;100.00
52319;BME280;38258;51.148;14.068;2023-12-20T12:25:12;97630.34;;;5.17;100.00
52319;BME280;38258;51.148;14.068;2023-12-20T12:27:43;97624.50;;;5.07;100.00
52319;BME280;38258;51.148;14.068;2023-12-20T12:30:10;97640.19;;;4.99;100.00
52319;BME280;38258;51.148;14.068;2023-12-20T12:32:40;97637.53;;;5.02;100.00
52319;BME280;38258;51.148;14.068;2023-12-20T12:35:11;97630.63;;;5.03;100.00
52319;BME280;38258;51.148;14.068;2023-12-20T12:37:39;97604.22;;;4.80;100.00
52319;BME280;38258;51.148;14.068;2023-12-20T12:40:09;97599.00;;;4.84;100.00
52319;BME280;38258;51.148;14.068;2023-12-20T12:42:36;97613.81;;;4.75;100.00
52319;BME280;38258;51.148;14.068;2023-12-20T12:45:06;97605.97;;;4.78;100.00
52319;BME280;38258;51.148;14.068;2023-12-20T12:47:38;97612.72;;;4.89;100.00
52319;BME280;38258;51.148;14.068;2023-12-20T12:50:17;97594.59;;;4.87;100.00